MMZC

General Leobardo C. Ruiz International Airport

Zacatecas, Mexico
TAF MMZC 242316Z 2500/2606 07010KT P6SM BKN030 TX24/2521Z TN12/2513Z TEMPO 2500/2504 4SM TSRA BKN030CB FM250600 07005KT P6SM SCT030 TEMPO 2512/2515 BKN030 FM251800 10010KT P6SM SCT030 PROB40 2521/2601 4SM TSRA BKN030CB
Issued Valid From Valid To
Sep-24 @ 23:16 UTC
(48 minutes ago)
Sep-25 @ 00:00 UTC
(4 minutes ago)
Sep-26 @ 06:00 UTC
(-1 days ago)
Sep-25 @ 00:00 to Sep-25 @ 06:00
TAF MMZC 242316Z 2500/2606 07010KT P6SM BKN030 TX24/2521Z TN12/2513Z
Wind Visibility Clouds
70° at 10 knots Greater than 6 miles
  • Broken at 3,000' AGL
Temporary Sep-25 @ 00:00 to Sep-25 @ 04:00
TEMPO 2500/2504 4SM TSRA BKN030CB
Visibility Clouds Conditions
4 miles
  • Broken at 3,000' AGL
  • Thunderstorm
  • Rain
From Sep-25 @ 06:00 to Sep-25 @ 18:00
FM250600 07005KT P6SM SCT030
Wind Visibility Clouds
70° at 5 knots Greater than 6 miles
  • Scattered at 3,000' AGL
Temporary Sep-25 @ 12:00 to Sep-25 @ 15:00
TEMPO 2512/2515 BKN030
Clouds
  • Broken at 3,000' AGL
From Sep-25 @ 18:00 to Sep-26 @ 06:00
FM251800 10010KT P6SM SCT030
Wind Visibility Clouds
100° at 10 knots Greater than 6 miles
  • Scattered at 3,000' AGL
Probable  (Probability 40%) Sep-25 @ 21:00 to Sep-26 @ 01:00
PROB40 2521/2601 4SM TSRA BKN030CB
Visibility Clouds Conditions
4 miles
  • Broken at 3,000' AGL
  • Thunderstorm
  • Rain
TAF MMZC 242316Z 2500/2606 07010KT P6SM BKN030 TX24/2521Z TN12/2513Z TEMPO 2500/2504 4SM TSRA BKN030CB FM250600 07005KT P6SM SCT030 TEMPO 2512/2515 BKN030 FM251800 10010KT P6SM SCT030 PROB40 2521/2601 4SM TSRA BKN030CB
Issued Sep-24 @ 23:16 UTC
(48 minutes ago)
Valid From Sep-25 @ 00:00 UTC
(4 minutes ago)
Valid To Sep-26 @ 06:00 UTC
(-1 days ago)
Sep-25 @ 00:00 - Sep-25 @ 06:00
Wind Visibility
70° at 10 knots Greater than 6 miles
Clouds
  • Broken at 3,000' AGL
Temporary Sep-25 @ 00:00 - Sep-25 @ 04:00
Clouds
  • Broken at 3,000' AGL
Conditions
  • Thunderstorm
  • Rain
From Sep-25 @ 06:00 - Sep-25 @ 18:00
Wind Visibility
70° at 5 knots Greater than 6 miles
Clouds
  • Scattered at 3,000' AGL
Temporary Sep-25 @ 12:00 - Sep-25 @ 15:00
Clouds
  • Broken at 3,000' AGL
From Sep-25 @ 18:00 - Sep-26 @ 06:00
Wind Visibility
100° at 10 knots Greater than 6 miles
Clouds
  • Scattered at 3,000' AGL
Probability 40% Probable Sep-25 @ 21:00 - Sep-26 @ 01:00
Clouds
  • Broken at 3,000' AGL
Conditions
  • Thunderstorm
  • Rain